sensor_id;sensor_type;location;lat;lon;timestamp;pressure;altitude;pressure_sealevel;temperature;humidity
61384;BME280;63511;49.346;8.798;2023-08-31T00:00:33;99648.66;;;17.06;100.00
61384;BME280;63511;49.346;8.798;2023-08-31T00:03:02;99634.50;;;16.87;100.00
61384;BME280;63511;49.346;8.798;2023-08-31T00:05:29;99664.00;;;17.07;100.00
61384;BME280;63511;49.346;8.798;2023-08-31T00:07:56;99651.94;;;17.02;100.00
61384;BME280;63511;49.346;8.798;2023-08-31T00:10:22;99664.47;;;17.22;100.00
61384;BME280;63511;49.346;8.798;2023-08-31T00:12:52;99666.47;;;17.32;100.00
61384;BME280;63511;49.346;8.798;2023-08-31T00:15:19;99666.28;;;17.26;100.00
61384;BME280;63511;49.346;8.798;2023-08-31T00:17:45;99643.75;;;17.12;100.00
61384;BME280;63511;49.346;8.798;2023-08-31T00:20:13;99655.91;;;17.20;100.00
61384;BME280;63511;49.346;8.798;2023-08-31T00:22:40;99663.78;;;17.28;99.86
61384;BME280;63511;49.346;8.798;2023-08-31T00:25:07;99671.56;;;17.32;99.88
61384;BME280;63511;49.346;8.798;2023-08-31T00:27:34;99625.34;;;16.93;100.00
61384;BME280;63511;49.346;8.798;2023-08-31T00:30:03;99645.75;;;16.93;100.00
61384;BME280;63511;49.346;8.798;2023-08-31T00:32:31;99641.34;;;16.89;100.00
61384;BME280;63511;49.346;8.798;2023-08-31T00:34:59;99595.66;;;16.42;100.00
61384;BME280;63511;49.346;8.798;2023-08-31T00:37:26;99615.38;;;16.47;100.00
61384;BME280;63511;49.346;8.798;2023-08-31T00:39:54;99646.84;;;16.75;100.00
61384;BME280;63511;49.346;8.798;2023-08-31T00:42:20;99649.53;;;16.79;100.00
61384;BME280;63511;49.346;8.798;2023-08-31T00:44:47;99628.00;;;16.70;100.00
61384;BME280;63511;49.346;8.798;2023-08-31T00:47:14;99644.41;;;16.78;100.00
61384;BME280;63511;49.346;8.798;2023-08-31T00:49:42;99641.00;;;16.77;100.00
61384;BME280;63511;49.346;8.798;2023-08-31T00:52:09;99614.53;;;16.48;100.00
61384;BME280;63511;49.346;8.798;2023-08-31T00:54:37;99649.31;;;16.72;100.00
61384;BME280;63511;49.346;8.798;2023-08-31T00:57:04;99629.16;;;16.54;100.00
61384;BME280;63511;49.346;8.798;2023-08-31T00:59:30;99637.63;;;16.53;100.00
61384;BME280;63511;49.346;8.798;2023-08-31T01:02:03;99642.63;;;16.50;100.00
61384;BME280;63511;49.346;8.798;2023-08-31T01:04:40;99650.47;;;16.56;100.00
61384;BME280;63511;49.346;8.798;2023-08-31T01:07:16;99653.53;;;16.46;100.00
61384;BME280;63511;49.346;8.798;2023-08-31T01:09:55;99686.97;;;16.80;100.00
61384;BME280;63511;49.346;8.798;2023-08-31T01:12:30;99669.91;;;16.78;100.00
61384;BME280;63511;49.346;8.798;2023-08-31T01:15:04;99684.09;;;16.96;99.79
61384;BME280;63511;49.346;8.798;2023-08-31T01:17:37;99677.19;;;16.92;100.00
61384;BME280;63511;49.346;8.798;2023-08-31T01:20:06;99696.31;;;17.07;100.00
61384;BME280;63511;49.346;8.798;2023-08-31T01:22:43;99683.66;;;17.10;100.00
61384;BME280;63511;49.346;8.798;2023-08-31T01:25:15;99672.34;;;17.02;100.00
61384;BME280;63511;49.346;8.798;2023-08-31T01:27:43;99654.56;;;16.76;100.00
61384;BME280;63511;49.346;8.798;2023-08-31T01:30:10;99664.97;;;16.82;100.00
61384;BME280;63511;49.346;8.798;2023-08-31T01:32:36;99697.25;;;17.09;100.00
61384;BME280;63511;49.346;8.798;2023-08-31T01:35:04;99691.59;;;17.19;100.00
61384;BME280;63511;49.346;8.798;2023-08-31T01:37:37;99680.72;;;16.97;100.00
61384;BME280;63511;49.346;8.798;2023-08-31T01:40:12;99686.16;;;17.08;100.00
61384;BME280;63511;49.346;8.798;2023-08-31T01:42:42;99698.38;;;17.18;100.00
61384;BME280;63511;49.346;8.798;2023-08-31T01:45:11;99703.06;;;17.33;100.00
61384;BME280;63511;49.346;8.798;2023-08-31T01:47:39;99697.91;;;17.31;100.00
61384;BME280;63511;49.346;8.798;2023-08-31T01:50:06;99708.38;;;17.39;99.78
61384;BME280;63511;49.346;8.798;2023-08-31T01:52:33;99712.94;;;17.49;100.00
61384;BME280;63511;49.346;8.798;2023-08-31T01:55:00;99665.50;;;17.00;100.00
61384;BME280;63511;49.346;8.798;2023-08-31T01:57:26;99687.84;;;17.08;100.00
61384;BME280;63511;49.346;8.798;2023-08-31T01:59:55;99706.38;;;17.29;100.00
61384;BME280;63511;49.346;8.798;2023-08-31T02:02:21;99692.53;;;17.22;100.00
61384;BME280;63511;49.346;8.798;2023-08-31T02:04:48;99686.91;;;17.06;100.00
61384;BME280;63511;49.346;8.798;2023-08-31T02:07:16;99690.19;;;17.02;100.00
61384;BME280;63511;49.346;8.798;2023-08-31T02:09:42;99712.75;;;17.15;100.00
61384;BME280;63511;49.346;8.798;2023-08-31T02:12:09;99724.69;;;17.44;100.00
61384;BME280;63511;49.346;8.798;2023-08-31T02:14:35;99715.09;;;17.37;100.00
61384;BME280;63511;49.346;8.798;2023-08-31T02:17:04;99688.91;;;17.14;100.00
61384;BME280;63511;49.346;8.798;2023-08-31T02:19:31;99710.31;;;17.19;100.00
61384;BME280;63511;49.346;8.798;2023-08-31T02:21:58;99722.00;;;17.39;100.00
61384;BME280;63511;49.346;8.798;2023-08-31T02:24:24;99713.28;;;17.33;100.00
61384;BME280;63511;49.346;8.798;2023-08-31T02:26:51;99697.47;;;17.16;100.00
61384;BME280;63511;49.346;8.798;2023-08-31T02:29:18;99721.13;;;17.39;100.00
61384;BME280;63511;49.346;8.798;2023-08-31T02:31:45;99701.25;;;17.29;100.00
61384;BME280;63511;49.346;8.798;2023-08-31T02:34:13;99696.59;;;17.16;100.00
61384;BME280;63511;49.346;8.798;2023-08-31T02:36:39;99727.88;;;17.37;100.00
61384;BME280;63511;49.346;8.798;2023-08-31T02:39:06;99725.56;;;17.45;100.00
61384;BME280;63511;49.346;8.798;2023-08-31T02:41:32;99720.41;;;17.43;100.00
61384;BME280;63511;49.346;8.798;2023-08-31T02:43:59;99702.88;;;17.27;100.00
61384;BME280;63511;49.346;8.798;2023-08-31T02:46:26;99701.47;;;17.08;100.00
61384;BME280;63511;49.346;8.798;2023-08-31T02:48:53;99722.25;;;17.20;100.00
61384;BME280;63511;49.346;8.798;2023-08-31T02:51:21;99709.19;;;17.10;100.00
61384;BME280;63511;49.346;8.798;2023-08-31T02:53:48;99720.47;;;17.18;100.00
61384;BME280;63511;49.346;8.798;2023-08-31T02:56:15;99680.97;;;16.78;100.00
61384;BME280;63511;49.346;8.798;2023-08-31T02:58:41;99707.97;;;16.98;100.00
61384;BME280;63511;49.346;8.798;2023-08-31T03:01:09;99745.72;;;17.37;100.00
61384;BME280;63511;49.346;8.798;2023-08-31T03:03:37;99742.44;;;17.41;100.00
61384;BME280;63511;49.346;8.798;2023-08-31T03:06:06;99730.34;;;17.34;100.00
61384;BME280;63511;49.346;8.798;2023-08-31T03:08:35;99709.13;;;17.08;100.00
61384;BME280;63511;49.346;8.798;2023-08-31T03:11:02;99717.53;;;17.06;100.00
61384;BME280;63511;49.346;8.798;2023-08-31T03:13:29;99731.69;;;17.23;100.00
61384;BME280;63511;49.346;8.798;2023-08-31T03:15:55;99739.44;;;17.26;100.00
61384;BME280;63511;49.346;8.798;2023-08-31T03:18:22;99739.44;;;17.26;100.00
61384;BME280;63511;49.346;8.798;2023-08-31T03:20:49;99714.16;;;17.07;100.00
61384;BME280;63511;49.346;8.798;2023-08-31T03:23:16;99728.88;;;17.14;100.00
61384;BME280;63511;49.346;8.798;2023-08-31T03:25:44;99732.63;;;17.25;100.00
61384;BME280;63511;49.346;8.798;2023-08-31T03:28:11;99728.88;;;17.15;100.00
61384;BME280;63511;49.346;8.798;2023-08-31T03:30:37;99735.78;;;17.18;100.00
61384;BME280;63511;49.346;8.798;2023-08-31T03:33:04;99753.19;;;17.31;100.00
61384;BME280;63511;49.346;8.798;2023-08-31T03:35:31;99740.94;;;17.19;100.00
61384;BME280;63511;49.346;8.798;2023-08-31T03:37:58;99740.69;;;17.12;100.00
61384;BME280;63511;49.346;8.798;2023-08-31T03:40:25;99752.19;;;17.26;100.00
61384;BME280;63511;49.346;8.798;2023-08-31T03:42:53;99725.34;;;17.10;100.00
61384;BME280;63511;49.346;8.798;2023-08-31T03:45:20;99764.28;;;17.31;100.00
61384;BME280;63511;49.346;8.798;2023-08-31T03:47:47;99729.41;;;17.04;100.00
61384;BME280;63511;49.346;8.798;2023-08-31T03:50:14;99752.03;;;17.20;100.00
61384;BME280;63511;49.346;8.798;2023-08-31T03:52:40;99752.91;;;17.22;100.00
61384;BME280;63511;49.346;8.798;2023-08-31T03:55:07;99750.16;;;17.14;100.00
61384;BME280;63511;49.346;8.798;2023-08-31T03:57:34;99750.03;;;17.11;100.00
61384;BME280;63511;49.346;8.798;2023-08-31T04:00:03;99754.38;;;17.14;100.00
61384;BME280;63511;49.346;8.798;2023-08-31T04:02:34;99765.78;;;17.25;100.00
61384;BME280;63511;49.346;8.798;2023-08-31T04:05:01;99732.66;;;16.99;100.00
61384;BME280;63511;49.346;8.798;2023-08-31T04:07:31;99738.88;;;17.08;100.00
61384;BME280;63511;49.346;8.798;2023-08-31T04:09:58;99760.50;;;17.20;100.00
61384;BME280;63511;49.346;8.798;2023-08-31T04:12:29;99752.44;;;17.07;100.00
61384;BME280;63511;49.346;8.798;2023-08-31T04:15:05;99761.31;;;17.18;100.00
61384;BME280;63511;49.346;8.798;2023-08-31T04:17:32;99768.88;;;17.15;100.00
61384;BME280;63511;49.346;8.798;2023-08-31T04:20:00;99756.63;;;17.05;100.00
61384;BME280;63511;49.346;8.798;2023-08-31T04:22:30;99767.00;;;17.09;100.00
61384;BME280;63511;49.346;8.798;2023-08-31T04:25:05;99752.88;;;16.93;100.00
61384;BME280;63511;49.346;8.798;2023-08-31T04:27:36;99755.47;;;16.95;100.00
61384;BME280;63511;49.346;8.798;2023-08-31T04:33:01;99790.09;;;17.14;100.00
61384;BME280;63511;49.346;8.798;2023-08-31T04:35:29;99799.59;;;17.18;100.00
61384;BME280;63511;49.346;8.798;2023-08-31T04:37:56;99780.41;;;17.04;100.00
61384;BME280;63511;49.346;8.798;2023-08-31T04:40:23;99783.63;;;16.98;100.00
61384;BME280;63511;49.346;8.798;2023-08-31T04:42:50;99781.03;;;16.96;100.00
61384;BME280;63511;49.346;8.798;2023-08-31T04:45:17;99792.97;;;16.97;100.00
61384;BME280;63511;49.346;8.798;2023-08-31T04:47:43;99794.94;;;17.06;100.00
61384;BME280;63511;49.346;8.798;2023-08-31T04:50:11;99762.63;;;16.80;100.00
61384;BME280;63511;49.346;8.798;2023-08-31T04:52:38;99789.63;;;17.00;100.00
61384;BME280;63511;49.346;8.798;2023-08-31T04:55:06;99790.63;;;17.04;100.00
61384;BME280;63511;49.346;8.798;2023-08-31T04:57:33;99773.81;;;16.83;100.00
61384;BME280;63511;49.346;8.798;2023-08-31T05:00:00;99787.56;;;16.88;100.00
61384;BME280;63511;49.346;8.798;2023-08-31T05:02:28;99804.75;;;16.94;100.00
61384;BME280;63511;49.346;8.798;2023-08-31T05:04:55;99807.47;;;16.98;100.00
61384;BME280;63511;49.346;8.798;2023-08-31T05:07:23;99797.72;;;16.87;100.00
61384;BME280;63511;49.346;8.798;2023-08-31T05:09:49;99812.41;;;16.94;100.00
61384;BME280;63511;49.346;8.798;2023-08-31T05:12:16;99835.00;;;17.09;100.00
61384;BME280;63511;49.346;8.798;2023-08-31T05:14:43;99825.41;;;17.02;100.00
61384;BME280;63511;49.346;8.798;2023-08-31T05:17:10;99831.66;;;17.10;100.00
61384;BME280;63511;49.346;8.798;2023-08-31T05:19:37;99835.03;;;17.10;100.00
61384;BME280;63511;49.346;8.798;2023-08-31T05:22:03;99842.97;;;17.18;100.00
61384;BME280;63511;49.346;8.798;2023-08-31T05:24:31;99829.09;;;17.10;100.00
61384;BME280;63511;49.346;8.798;2023-08-31T05:26:58;99827.44;;;17.12;100.00
61384;BME280;63511;49.346;8.798;2023-08-31T05:29:25;99834.03;;;17.05;100.00
61384;BME280;63511;49.346;8.798;2023-08-31T05:31:51;99838.44;;;17.09;100.00
61384;BME280;63511;49.346;8.798;2023-08-31T05:34:20;99848.81;;;17.15;100.00
61384;BME280;63511;49.346;8.798;2023-08-31T05:36:47;99843.63;;;17.12;100.00
61384;BME280;63511;49.346;8.798;2023-08-31T05:39:13;99854.78;;;17.16;100.00
61384;BME280;63511;49.346;8.798;2023-08-31T05:41:43;99859.09;;;17.17;100.00
61384;BME280;63511;49.346;8.798;2023-08-31T05:44:10;99863.47;;;17.21;100.00
61384;BME280;63511;49.346;8.798;2023-08-31T05:46:37;99836.22;;;16.94;100.00
61384;BME280;63511;49.346;8.798;2023-08-31T05:49:05;99868.34;;;17.13;100.00
61384;BME280;63511;49.346;8.798;2023-08-31T05:51:32;99862.44;;;17.16;100.00
61384;BME280;63511;49.346;8.798;2023-08-31T05:53:59;99865.50;;;17.31;100.00
61384;BME280;63511;49.346;8.798;2023-08-31T05:56:25;99868.22;;;17.35;100.00
61384;BME280;63511;49.346;8.798;2023-08-31T05:58:54;99856.06;;;17.28;100.00
61384;BME280;63511;49.346;8.798;2023-08-31T06:01:21;99867.09;;;17.27;100.00
61384;BME280;63511;49.346;8.798;2023-08-31T06:03:48;99868.50;;;17.45;100.00
61384;BME280;63511;49.346;8.798;2023-08-31T06:06:14;99853.38;;;17.24;100.00
61384;BME280;63511;49.346;8.798;2023-08-31T06:08:42;99865.31;;;17.25;100.00
61384;BME280;63511;49.346;8.798;2023-08-31T06:11:09;99859.56;;;17.30;100.00
61384;BME280;63511;49.346;8.798;2023-08-31T06:13:35;99872.69;;;17.42;100.00
61384;BME280;63511;49.346;8.798;2023-08-31T06:16:03;99848.28;;;17.25;100.00
61384;BME280;63511;49.346;8.798;2023-08-31T06:18:30;99854.59;;;17.35;100.00
61384;BME280;63511;49.346;8.798;2023-08-31T06:20:57;99866.84;;;17.45;100.00
61384;BME280;63511;49.346;8.798;2023-08-31T06:23:23;99852.22;;;17.41;100.00
61384;BME280;63511;49.346;8.798;2023-08-31T06:25:50;99857.28;;;17.39;100.00
61384;BME280;63511;49.346;8.798;2023-08-31T06:28:16;99846.25;;;17.14;100.00
61384;BME280;63511;49.346;8.798;2023-08-31T06:30:43;99868.69;;;17.24;100.00
61384;BME280;63511;49.346;8.798;2023-08-31T06:33:13;99868.56;;;17.21;100.00
61384;BME280;63511;49.346;8.798;2023-08-31T06:35:40;99852.09;;;17.11;100.00
61384;BME280;63511;49.346;8.798;2023-08-31T06:38:06;99880.63;;;17.25;100.00
61384;BME280;63511;49.346;8.798;2023-08-31T06:40:33;99874.69;;;17.26;100.00
61384;BME280;63511;49.346;8.798;2023-08-31T06:42:59;99885.91;;;17.31;100.00
61384;BME280;63511;49.346;8.798;2023-08-31T06:45:27;99880.66;;;17.26;100.00
61384;BME280;63511;49.346;8.798;2023-08-31T06:47:53;99907.16;;;17.55;100.00
61384;BME280;63511;49.346;8.798;2023-08-31T06:50:21;99895.25;;;17.56;99.21
61384;BME280;63511;49.346;8.798;2023-08-31T06:52:48;99848.81;;;17.15;96.57
61384;BME280;63511;49.346;8.798;2023-08-31T06:55:15;99876.03;;;17.15;96.68
61384;BME280;63511;49.346;8.798;2023-08-31T06:57:41;99897.94;;;17.33;95.60
61384;BME280;63511;49.346;8.798;2023-08-31T07:00:10;99903.13;;;17.62;93.97
61384;BME280;63511;49.346;8.798;2023-08-31T07:02:39;99898.81;;;17.59;95.23
61384;BME280;63511;49.346;8.798;2023-08-31T07:05:06;99863.00;;;17.32;92.24
61384;BME280;63511;49.346;8.798;2023-08-31T07:07:34;99889.69;;;17.42;92.40
61384;BME280;63511;49.346;8.798;2023-08-31T07:10:01;99909.50;;;17.74;91.43
61384;BME280;63511;49.346;8.798;2023-08-31T07:12:27;99911.25;;;17.75;93.32
61384;BME280;63511;49.346;8.798;2023-08-31T07:14:54;99904.13;;;17.67;94.71
61384;BME280;63511;49.346;8.798;2023-08-31T07:17:20;99899.72;;;17.61;92.42
61384;BME280;63511;49.346;8.798;2023-08-31T07:19:47;99887.50;;;17.53;90.03
61384;BME280;63511;49.346;8.798;2023-08-31T07:22:14;99891.56;;;17.48;91.75
61384;BME280;63511;49.346;8.798;2023-08-31T07:24:42;99903.19;;;17.63;88.90
61384;BME280;63511;49.346;8.798;2023-08-31T07:27:09;99885.75;;;17.52;88.31
61384;BME280;63511;49.346;8.798;2023-08-31T07:29:36;99927.38;;;17.74;86.49
61384;BME280;63511;49.346;8.798;2023-08-31T07:32:03;99915.44;;;17.73;88.08
61384;BME280;63511;49.346;8.798;2023-08-31T07:34:29;99919.53;;;17.68;88.67
61384;BME280;63511;49.346;8.798;2023-08-31T07:36:56;99942.31;;;17.89;88.30
61384;BME280;63511;49.346;8.798;2023-08-31T07:39:23;99944.34;;;17.99;89.86
61384;BME280;63511;49.346;8.798;2023-08-31T07:41:53;99929.16;;;18.04;85.05
61384;BME280;63511;49.346;8.798;2023-08-31T07:44:21;99940.75;;;18.21;86.46
61384;BME280;63511;49.346;8.798;2023-08-31T07:46:47;99939.03;;;18.20;85.61
61384;BME280;63511;49.346;8.798;2023-08-31T07:49:14;99959.94;;;18.35;83.53
61384;BME280;63511;49.346;8.798;2023-08-31T07:51:41;99925.34;;;18.18;83.95
61384;BME280;63511;49.346;8.798;2023-08-31T07:54:07;99942.69;;;18.28;84.47
61384;BME280;63511;49.346;8.798;2023-08-31T07:56:34;99970.00;;;18.57;83.82
61384;BME280;63511;49.346;8.798;2023-08-31T07:59:03;99957.28;;;18.59;79.22
61384;BME280;63511;49.346;8.798;2023-08-31T08:01:29;99970.53;;;18.76;78.27
61384;BME280;63511;49.346;8.798;2023-08-31T08:03:56;99998.31;;;19.23;80.63
61384;BME280;63511;49.346;8.798;2023-08-31T08:06:23;99937.44;;;18.82;76.38
61384;BME280;63511;49.346;8.798;2023-08-31T08:08:49;99940.69;;;18.75;80.34
61384;BME280;63511;49.346;8.798;2023-08-31T08:11:16;99926.25;;;18.50;78.16
61384;BME280;63511;49.346;8.798;2023-08-31T08:13:42;99951.91;;;18.80;77.93
61384;BME280;63511;49.346;8.798;2023-08-31T08:16:10;99969.31;;;18.93;75.90
61384;BME280;63511;49.346;8.798;2023-08-31T08:18:37;99972.00;;;18.97;77.97
61384;BME280;63511;49.346;8.798;2023-08-31T08:21:03;99963.56;;;19.00;75.33
61384;BME280;63511;49.346;8.798;2023-08-31T08:23:30;99950.53;;;18.92;74.25
61384;BME280;63511;49.346;8.798;2023-08-31T08:25:57;99958.22;;;18.92;74.17
61384;BME280;63511;49.346;8.798;2023-08-31T08:28:24;99962.50;;;18.93;73.99
61384;BME280;63511;49.346;8.798;2023-08-31T08:30:51;99994.22;;;19.30;76.04
61384;BME280;63511;49.346;8.798;2023-08-31T08:33:19;99983.22;;;19.34;78.60
61384;BME280;63511;49.346;8.798;2023-08-31T08:35:46;99962.94;;;19.08;76.71
61384;BME280;63511;49.346;8.798;2023-08-31T08:38:12;99963.31;;;19.22;77.66
61384;BME280;63511;49.346;8.798;2023-08-31T08:40:39;99986.00;;;19.41;76.05
61384;BME280;63511;49.346;8.798;2023-08-31T08:43:07;99967.00;;;19.33;73.77
61384;BME280;63511;49.346;8.798;2023-08-31T08:45:36;99989.06;;;19.60;75.60
61384;BME280;63511;49.346;8.798;2023-08-31T08:48:05;99955.69;;;19.25;70.70
61384;BME280;63511;49.346;8.798;2023-08-31T08:50:35;99938.13;;;19.06;69.89
61384;BME280;63511;49.346;8.798;2023-08-31T08:53:02;99936.44;;;19.06;70.77
61384;BME280;63511;49.346;8.798;2023-08-31T08:55:29;99965.31;;;19.34;74.08
61384;BME280;63511;49.346;8.798;2023-08-31T08:57:57;99978.59;;;19.50;72.74
61384;BME280;63511;49.346;8.798;2023-08-31T09:00:25;99943.56;;;19.18;71.50
61384;BME280;63511;49.346;8.798;2023-08-31T09:02:52;99950.47;;;19.21;71.14
61384;BME280;63511;49.346;8.798;2023-08-31T09:05:18;99938.38;;;19.15;69.59
61384;BME280;63511;49.346;8.798;2023-08-31T09:08:03;99973.81;;;19.33;69.95
61384;BME280;63511;49.346;8.798;2023-08-31T09:10:35;99960.88;;;19.27;69.77
61384;BME280;63511;49.346;8.798;2023-08-31T09:13:05;99966.88;;;19.29;67.79
61384;BME280;63511;49.346;8.798;2023-08-31T09:15:42;99997.81;;;19.68;68.93
61384;BME280;63511;49.346;8.798;2023-08-31T09:18:14;99994.66;;;19.79;71.54
61384;BME280;63511;49.346;8.798;2023-08-31T09:20:46;99977.44;;;19.72;67.17
61384;BME280;63511;49.346;8.798;2023-08-31T09:23:15;99937.44;;;19.44;66.42
61384;BME280;63511;49.346;8.798;2023-08-31T09:25:43;99973.63;;;19.57;72.13
61384;BME280;63511;49.346;8.798;2023-08-31T09:28:10;99969.38;;;19.57;67.91
61384;BME280;63511;49.346;8.798;2023-08-31T09:30:37;99974.00;;;19.72;69.50
61384;BME280;63511;49.346;8.798;2023-08-31T09:33:06;99981.09;;;19.82;68.74
61384;BME280;63511;49.346;8.798;2023-08-31T09:35:34;99962.72;;;19.65;66.79
61384;BME280;63511;49.346;8.798;2023-08-31T09:38:00;99978.72;;;19.89;67.06
61384;BME280;63511;49.346;8.798;2023-08-31T09:40:29;99967.47;;;19.84;69.71
61384;BME280;63511;49.346;8.798;2023-08-31T09:42:55;99971.84;;;19.88;67.82
61384;BME280;63511;49.346;8.798;2023-08-31T09:45:28;99964.22;;;19.91;68.09
61384;BME280;63511;49.346;8.798;2023-08-31T09:47:56;99936.22;;;19.65;65.19
61384;BME280;63511;49.346;8.798;2023-08-31T09:50:23;99972.97;;;20.00;69.77
61384;BME280;63511;49.346;8.798;2023-08-31T09:52:54;99967.91;;;20.03;67.88
61384;BME280;63511;49.346;8.798;2023-08-31T09:55:24;99983.59;;;20.16;66.63
61384;BME280;63511;49.346;8.798;2023-08-31T09:57:56;99964.63;;;20.08;64.90
61384;BME280;63511;49.346;8.798;2023-08-31T10:00:23;99983.94;;;20.30;66.40
61384;BME280;63511;49.346;8.798;2023-08-31T10:02:50;99970.97;;;20.24;68.19
61384;BME280;63511;49.346;8.798;2023-08-31T10:05:18;99963.13;;;20.18;65.83
61384;BME280;63511;49.346;8.798;2023-08-31T10:07:45;99989.56;;;20.51;65.97
61384;BME280;63511;49.346;8.798;2023-08-31T10:10:14;99963.59;;;20.38;65.48
61384;BME280;63511;49.346;8.798;2023-08-31T10:12:42;99966.94;;;20.33;63.19
61384;BME280;63511;49.346;8.798;2023-08-31T10:15:11;99969.59;;;20.38;67.03
61384;BME280;63511;49.346;8.798;2023-08-31T10:17:38;99987.47;;;20.74;63.49
61384;BME280;63511;49.346;8.798;2023-08-31T10:20:07;100005.09;;;20.99;66.37
61384;BME280;63511;49.346;8.798;2023-08-31T10:22:34;99981.00;;;20.91;62.86
61384;BME280;63511;49.346;8.798;2023-08-31T10:25:03;99974.94;;;20.88;64.15
61384;BME280;63511;49.346;8.798;2023-08-31T10:27:36;99966.31;;;20.86;60.51
61384;BME280;63511;49.346;8.798;2023-08-31T10:30:24;99983.25;;;21.18;60.95
61384;BME280;63511;49.346;8.798;2023-08-31T10:33:20;99985.28;;;21.36;59.87
61384;BME280;63511;49.346;8.798;2023-08-31T10:35:49;99946.13;;;21.02;61.58
61384;BME280;63511;49.346;8.798;2023-08-31T10:38:23;99932.09;;;20.85;59.50
61384;BME280;63511;49.346;8.798;2023-08-31T10:41:01;99960.16;;;21.18;59.77
61384;BME280;63511;49.346;8.798;2023-08-31T10:43:43;99926.91;;;20.82;57.51
61384;BME280;63511;49.346;8.798;2023-08-31T10:46:19;99934.69;;;20.88;60.78
61384;BME280;63511;49.346;8.798;2023-08-31T10:48:51;99925.09;;;20.78;59.85
61384;BME280;63511;49.346;8.798;2023-08-31T10:51:21;99904.34;;;20.66;57.60
61384;BME280;63511;49.346;8.798;2023-08-31T10:53:48;99926.91;;;20.82;57.77
61384;BME280;63511;49.346;8.798;2023-08-31T10:56:16;99962.91;;;21.30;56.40
61384;BME280;63511;49.346;8.798;2023-08-31T10:58:42;99958.84;;;21.40;58.49
61384;BME280;63511;49.346;8.798;2023-08-31T11:01:10;99961.09;;;21.73;55.32
61384;BME280;63511;49.346;8.798;2023-08-31T11:03:59;99909.66;;;21.18;56.11
61384;BME280;63511;49.346;8.798;2023-08-31T11:06:25;99928.75;;;21.36;55.00
61384;BME280;63511;49.346;8.798;2023-08-31T11:08:55;99939.44;;;21.58;55.01
61384;BME280;63511;49.346;8.798;2023-08-31T11:11:23;99906.66;;;21.45;54.52
61384;BME280;63511;49.346;8.798;2023-08-31T11:13:56;99899.38;;;21.20;52.80
61384;BME280;63511;49.346;8.798;2023-08-31T11:16:23;99905.38;;;21.19;52.53
61384;BME280;63511;49.346;8.798;2023-08-31T11:18:49;99877.50;;;20.95;56.40
61384;BME280;63511;49.346;8.798;2023-08-31T11:21:17;99914.78;;;21.20;54.54
61384;BME280;63511;49.346;8.798;2023-08-31T11:23:47;99893.06;;;21.03;55.64
61384;BME280;63511;49.346;8.798;2023-08-31T11:26:14;99922.75;;;21.35;53.11
61384;BME280;63511;49.346;8.798;2023-08-31T11:28:43;99891.94;;;21.35;51.23
61384;BME280;63511;49.346;8.798;2023-08-31T11:31:11;99919.84;;;21.67;53.74
61384;BME280;63511;49.346;8.798;2023-08-31T11:33:38;99903.63;;;21.69;51.84
61384;BME280;63511;49.346;8.798;2023-08-31T11:36:07;99898.44;;;21.66;53.13
61384;BME280;63511;49.346;8.798;2023-08-31T11:38:35;99921.88;;;21.87;51.94
61384;BME280;63511;49.346;8.798;2023-08-31T11:41:02;99877.81;;;21.60;54.34
61384;BME280;63511;49.346;8.798;2023-08-31T11:43:28;99864.44;;;21.28;54.75
61384;BME280;63511;49.346;8.798;2023-08-31T11:45:56;99856.84;;;20.89;54.60
61384;BME280;63511;49.346;8.798;2023-08-31T11:48:23;99886.78;;;20.87;53.13
61384;BME280;63511;49.346;8.798;2023-08-31T11:50:50;99865.84;;;20.67;53.11
61384;BME280;63511;49.346;8.798;2023-08-31T11:53:18;99860.34;;;20.48;53.21
61384;BME280;63511;49.346;8.798;2023-08-31T11:55:53;99863.88;;;20.53;54.44
61384;BME280;63511;49.346;8.798;2023-08-31T11:58:19;99888.19;;;20.71;53.97
61384;BME280;63511;49.346;8.798;2023-08-31T12:00:54;99901.25;;;20.82;54.05
61384;BME280;63511;49.346;8.798;2023-08-31T12:03:21;99908.28;;;20.92;55.48
61384;BME280;63511;49.346;8.798;2023-08-31T12:05:51;99935.59;;;21.34;55.17
61384;BME280;63511;49.346;8.798;2023-08-31T12:08:24;99931.56;;;21.48;53.16
61384;BME280;63511;49.346;8.798;2023-08-31T12:10:52;99913.75;;;21.58;51.87
61384;BME280;63511;49.346;8.798;2023-08-31T12:13:19;99904.56;;;21.74;50.55
61384;BME280;63511;49.346;8.798;2023-08-31T12:15:47;99934.56;;;22.31;55.79
61384;BME280;63511;49.346;8.798;2023-08-31T12:18:14;99907.63;;;22.04;53.78
61384;BME280;63511;49.346;8.798;2023-08-31T12:20:44;99932.91;;;22.36;51.98
61384;BME280;63511;49.346;8.798;2023-08-31T12:23:11;99924.56;;;22.52;51.31
61384;BME280;63511;49.346;8.798;2023-08-31T12:25:45;99930.78;;;22.69;52.52
61384;BME280;63511;49.346;8.798;2023-08-31T12:28:13;99887.22;;;22.17;51.67
61384;BME280;63511;49.346;8.798;2023-08-31T12:30:42;99863.47;;;21.76;52.53
61384;BME280;63511;49.346;8.798;2023-08-31T12:33:09;99863.91;;;21.49;55.20
61384;BME280;63511;49.346;8.798;2023-08-31T12:35:36;99866.06;;;21.25;54.13
61384;BME280;63511;49.346;8.798;2023-08-31T12:38:03;99874.66;;;21.27;52.87
61384;BME280;63511;49.346;8.798;2023-08-31T12:40:30;99893.75;;;21.39;55.40
61384;BME280;63511;49.346;8.798;2023-08-31T12:42:57;99875.63;;;21.32;55.93
61384;BME280;63511;49.346;8.798;2023-08-31T12:45:25;99901.91;;;21.68;56.92
61384;BME280;63511;49.346;8.798;2023-08-31T12:47:51;99917.88;;;22.03;56.55
61384;BME280;63511;49.346;8.798;2023-08-31T12:50:18;99914.66;;;22.18;53.05
61384;BME280;63511;49.346;8.798;2023-08-31T12:52:45;99962.00;;;22.94;56.37
61384;BME280;63511;49.346;8.798;2023-08-31T12:55:12;99939.81;;;23.08;52.15
61384;BME280;63511;49.346;8.798;2023-08-31T12:57:39;99931.38;;;23.22;53.14
61384;BME280;63511;49.346;8.798;2023-08-31T13:00:07;99889.22;;;22.37;52.77
61384;BME280;63511;49.346;8.798;2023-08-31T13:02:38;99892.44;;;22.24;54.68